Time;durP1;ratioP1;P1;durP2;ratioP2;P2;SDS_P1;SDS_P2;PMS_P1;PMS_P2;Temp;Humidity;BMP_temperature;BMP_pressure;BME280_temperature;BME280_humidity;BME280_pressure;Samples;Min_cycle;Max_cycle;Signal;HPM_P1;HPM_P2
2022/10/11 00:01:40;;;;;;;14.00;4.43;;;12.70;99.90;;;;;;5063327;28;20485;-77
2022/10/11 00:04:07;;;;;;;4.70;4.13;;;12.70;99.90;;;;;;5062984;28;20955;-77
2022/10/11 00:06:36;;;;;;;5.33;4.83;;;12.70;99.90;;;;;;5061692;28;20938;-77
2022/10/11 00:09:03;;;;;;;5.27;3.63;;;12.80;99.90;;;;;;5062870;28;20470;-77
2022/10/11 00:11:31;;;;;;;4.53;3.80;;;12.90;99.90;;;;;;5063679;28;20466;-77
2022/10/11 00:13:59;;;;;;;4.13;3.00;;;13.00;99.90;;;;;;5059934;28;20465;-77
2022/10/11 00:16:26;;;;;;;3.70;3.03;;;13.00;99.90;;;;;;5064407;28;20650;-77
2022/10/11 00:18:53;;;;;;;5.90;4.43;;;13.00;99.90;;;;;;5063112;28;20517;-77
2022/10/11 00:21:20;;;;;;;5.10;3.40;;;13.00;99.90;;;;;;5061731;28;20462;-77
2022/10/11 00:23:48;;;;;;;7.93;3.23;;;13.00;99.90;;;;;;5064073;28;20453;-77
2022/10/11 00:26:15;;;;;;;5.60;3.70;;;13.00;99.90;;;;;;5064766;28;20950;-76
2022/10/11 00:28:42;;;;;;;8.70;3.93;;;13.00;99.90;;;;;;5060429;28;20595;-77
2022/10/11 00:31:14;;;;;;;5.20;4.70;;;13.00;99.90;;;;;;5061977;28;20461;-78
2022/10/11 00:33:41;;;;;;;3.33;3.00;;;13.00;99.90;;;;;;5066753;28;20497;-77
2022/10/11 00:36:12;;;;;;;3.90;3.50;;;13.00;99.90;;;;;;5063216;28;20593;-77
2022/10/11 00:38:40;;;;;;;3.93;2.70;;;13.00;99.90;;;;;;5064946;28;20525;-77
2022/10/11 00:41:07;;;;;;;4.20;3.33;;;12.90;99.90;;;;;;5061750;28;20479;-77
2022/10/11 00:43:34;;;;;;;2.93;2.60;;;12.90;99.90;;;;;;5063483;28;20960;-77
2022/10/11 00:46:30;;;;;;;5.47;2.73;;;12.90;99.90;;;;;;5059740;28;20967;-77
2022/10/11 00:49:04;;;;;;;4.17;3.07;;;12.90;99.90;;;;;;5060800;28;20506;-77
2022/10/11 00:51:39;;;;;;;6.37;3.10;;;13.00;99.90;;;;;;5059455;28;20497;-77
2022/10/11 00:54:11;;;;;;;4.83;2.90;;;13.00;99.90;;;;;;5061519;28;20956;-77
2022/10/11 00:56:40;;;;;;;6.00;3.30;;;13.00;99.90;;;;;;5065380;28;20514;-77
2022/10/11 00:59:13;;;;;;;4.33;2.90;;;13.00;99.90;;;;;;5063717;28;20555;-77
2022/10/11 01:01:42;;;;;;;2.70;2.50;;;13.00;99.90;;;;;;5058657;28;20525;-77
2022/10/11 01:04:09;;;;;;;3.30;2.53;;;13.00;99.90;;;;;;5063367;28;21041;-77
2022/10/11 01:06:36;;;;;;;4.90;3.20;;;13.00;99.90;;;;;;5061928;28;20624;-77
2022/10/11 01:09:03;;;;;;;3.73;2.50;;;13.00;99.90;;;;;;5057791;28;20536;-77
2022/10/11 01:11:31;;;;;;;4.63;3.20;;;13.00;99.90;;;;;;5061842;28;20563;-77
2022/10/11 01:14:32;;;;;;;3.30;2.80;;;13.10;99.90;;;;;;5059731;28;22764;-77
2022/10/11 01:17:09;;;;;;;5.37;3.20;;;13.00;99.90;;;;;;5059342;28;20567;-77
2022/10/11 01:19:52;;;;;;;6.50;2.53;;;12.90;99.90;;;;;;5061364;28;20497;-77
2022/10/11 01:22:42;;;;;;;3.37;3.13;;;12.90;99.90;;;;;;5058916;28;20495;-77
2022/10/11 01:25:21;;;;;;;4.27;3.00;;;12.80;99.90;;;;;;5063457;28;21024;-77
2022/10/11 01:28:01;;;;;;;3.03;2.60;;;12.70;99.90;;;;;;5059976;28;20572;-77
2022/10/11 01:30:31;;;;;;;5.57;2.60;;;12.60;99.90;;;;;;5060006;28;20517;-77
2022/10/11 01:33:10;;;;;;;5.03;2.90;;;12.60;99.90;;;;;;5060800;28;20546;-77
2022/10/11 01:35:42;;;;;;;3.30;2.70;;;12.50;99.90;;;;;;5060572;28;20972;-77
2022/10/11 01:38:13;;;;;;;3.37;2.70;;;12.50;99.90;;;;;;5059232;28;21108;-77
2022/10/11 01:40:46;;;;;;;6.93;2.97;;;12.40;99.90;;;;;;5060661;28;20463;-77
2022/10/11 01:43:15;;;;;;;4.63;2.80;;;12.40;99.90;;;;;;5062100;28;20470;-77
2022/10/11 01:45:44;;;;;;;3.83;3.40;;;12.40;99.90;;;;;;5060221;28;20463;-77
2022/10/11 01:48:13;;;;;;;5.73;3.07;;;12.40;99.90;;;;;;5059940;28;20553;-77
2022/10/11 01:50:43;;;;;;;3.13;2.93;;;12.40;99.90;;;;;;5061404;28;20938;-77
2022/10/11 01:53:40;;;;;;;2.80;2.40;;;12.30;99.90;;;;;;5057402;28;20542;-77
2022/10/11 01:56:22;;;;;;;4.43;3.50;;;12.30;99.90;;;;;;5056018;28;21013;-77
2022/10/11 01:59:00;;;;;;;3.97;3.10;;;12.30;99.90;;;;;;5058168;28;20545;-77
2022/10/11 02:01:37;;;;;;;3.57;2.93;;;12.40;99.90;;;;;;5058383;28;20495;-77
2022/10/11 02:04:11;;;;;;;3.67;2.80;;;12.40;99.90;;;;;;5054033;28;20466;-77
2022/10/11 02:06:46;;;;;;;4.27;2.90;;;12.30;99.90;;;;;;5057978;28;20475;-77
2022/10/11 02:09:22;;;;;;;3.77;3.47;;;12.30;99.90;;;;;;5062282;28;20461;-78
2022/10/11 02:11:49;;;;;;;4.00;2.60;;;12.30;99.90;;;;;;5057146;28;20524;-77
2022/10/11 02:14:19;;;;;;;4.83;3.20;;;12.20;99.90;;;;;;5059408;28;20465;-77
2022/10/11 02:16:52;;;;;;;5.60;3.20;;;12.20;99.90;;;;;;5059030;28;20580;-77
2022/10/11 02:19:23;;;;;;;6.70;3.80;;;12.30;99.90;;;;;;5059620;28;20972;-77
2022/10/11 02:21:54;;;;;;;3.90;3.27;;;12.40;99.90;;;;;;5060644;28;20856;-77
2022/10/11 02:24:26;;;;;;;5.60;4.00;;;12.50;99.90;;;;;;5058210;28;20491;-77
2022/10/11 02:26:55;;;;;;;9.17;2.90;;;12.50;99.90;;;;;;5056324;28;20549;-77
2022/10/11 02:29:25;;;;;;;3.87;3.33;;;12.60;99.90;;;;;;5056600;28;20547;-77
2022/10/11 02:31:55;;;;;;;3.97;3.67;;;12.70;99.90;;;;;;5059349;28;20952;-77
2022/10/11 02:34:25;;;;;;;11.13;4.27;;;12.70;99.90;;;;;;5066401;28;20527;-77
2022/10/11 02:37:01;;;;;;;3.27;2.97;;;12.50;99.90;;;;;;5056150;28;20507;-77
2022/10/11 02:39:36;;;;;;;3.23;2.93;;;12.40;99.90;;;;;;5061318;28;20461;-77
2022/10/11 02:42:06;;;;;;;3.97;3.07;;;12.30;99.90;;;;;;5056920;28;20464;-77
2022/10/11 02:44:38;;;;;;;5.70;2.70;;;12.50;99.90;;;;;;5061192;28;20522;-77
2022/10/11 02:47:07;;;;;;;6.20;4.20;;;12.30;99.90;;;;;;5059238;28;20500;-77
2022/10/11 02:49:35;;;;;;;3.40;3.10;;;12.20;99.90;;;;;;5059512;28;21037;-77
2022/10/11 02:52:04;;;;;;;4.00;3.70;;;12.10;99.90;;;;;;5054857;28;21220;-77
2022/10/11 02:54:31;;;;;;;3.53;3.10;;;12.00;99.90;;;;;;5061527;28;20519;-77
2022/10/11 02:56:58;;;;;;;10.57;3.10;;;12.00;99.90;;;;;;5056173;28;21012;-77
2022/10/11 02:59:25;;;;;;;5.23;3.40;;;11.80;99.90;;;;;;5056841;28;20528;-77
2022/10/11 03:01:52;;;;;;;4.30;3.90;;;11.80;99.90;;;;;;5058351;28;20495;-77
2022/10/11 03:04:20;;;;;;;3.93;3.60;;;11.80;99.90;;;;;;5057827;28;20497;-77
2022/10/11 03:06:47;;;;;;;3.53;3.00;;;11.90;99.90;;;;;;5059162;28;20485;-77
2022/10/11 03:09:14;;;;;;;4.70;3.87;;;12.00;99.90;;;;;;5059997;28;20535;-77
2022/10/11 03:11:41;;;;;;;5.70;4.07;;;12.10;99.90;;;;;;5059031;28;20545;-77
2022/10/11 03:14:08;;;;;;;5.70;4.33;;;12.10;99.90;;;;;;5059822;28;20492;-76
2022/10/11 03:16:35;;;;;;;4.70;4.17;;;12.10;99.90;;;;;;5059756;28;20572;-77
2022/10/11 03:19:02;;;;;;;5.07;4.47;;;12.10;99.90;;;;;;5057803;28;20624;-77
2022/10/11 03:21:30;;;;;;;5.93;5.10;;;12.10;99.90;;;;;;5061054;28;21141;-77
2022/10/11 03:23:57;;;;;;;6.00;4.30;;;12.00;99.90;;;;;;5058918;28;20458;-77
2022/10/11 03:26:24;;;;;;;5.63;4.20;;;11.80;99.90;;;;;;5063753;28;20544;-77
2022/10/11 03:28:51;;;;;;;12.80;4.87;;;11.80;99.90;;;;;;5061632;28;21070;-77
2022/10/11 03:31:19;;;;;;;5.60;5.00;;;11.60;99.90;;;;;;5062773;28;20562;-77
2022/10/11 03:33:47;;;;;;;5.10;4.50;;;11.60;99.90;;;;;;5064610;28;20469;-77
2022/10/11 03:36:14;;;;;;;4.33;3.93;;;11.50;99.90;;;;;;5064867;28;21048;-77
2022/10/11 03:38:42;;;;;;;10.67;5.37;;;11.40;99.90;;;;;;5061061;28;20554;-77
2022/10/11 03:41:09;;;;;;;10.07;5.93;;;11.40;99.90;;;;;;5060582;28;20518;-77
2022/10/11 03:43:36;;;;;;;8.87;5.63;;;11.40;99.90;;;;;;5063966;28;20558;-77
2022/10/11 03:46:03;;;;;;;5.47;4.97;;;11.50;99.90;;;;;;5060497;28;20464;-77
2022/10/11 03:48:30;;;;;;;5.40;4.77;;;11.60;99.90;;;;;;5059292;28;20465;-77
2022/10/11 03:50:56;;;;;;;6.17;5.37;;;11.60;99.90;;;;;;5058730;28;20629;-77
2022/10/11 03:53:23;;;;;;;8.83;5.10;;;11.50;99.90;;;;;;5060771;28;21048;-77
2022/10/11 03:55:54;;;;;;;5.50;5.10;;;11.50;99.90;;;;;;5060803;28;20459;-77
2022/10/11 03:58:22;;;;;;;10.40;6.30;;;11.60;99.90;;;;;;5061225;28;20551;-78
2022/10/11 04:00:49;;;;;;;13.13;5.03;;;11.60;99.90;;;;;;5059662;28;20567;-78
2022/10/11 04:03:16;;;;;;;9.93;5.37;;;11.60;99.90;;;;;;5063168;28;20997;-77
2022/10/11 04:05:43;;;;;;;5.80;5.30;;;11.60;99.90;;;;;;5065096;28;20562;-77
2022/10/11 04:08:10;;;;;;;6.13;5.00;;;11.50;99.90;;;;;;5060733;28;21085;-77
2022/10/11 04:10:37;;;;;;;6.30;5.37;;;11.40;99.90;;;;;;5060239;28;20520;-77
2022/10/11 04:13:05;;;;;;;5.87;4.43;;;11.40;99.90;;;;;;5062024;28;20461;-77
2022/10/11 04:15:32;;;;;;;4.20;3.90;;;11.30;99.90;;;;;;5062718;28;20551;-77
2022/10/11 04:17:59;;;;;;;3.90;3.70;;;11.30;99.90;;;;;;5060526;28;20973;-75
2022/10/11 04:20:26;;;;;;;4.33;3.60;;;11.30;99.90;;;;;;5063979;28;20493;-75
2022/10/11 04:22:53;;;;;;;8.23;4.00;;;11.20;99.90;;;;;;5059260;28;20485;-76
2022/10/11 04:25:19;;;;;;;5.07;4.60;;;11.20;99.90;;;;;;5063883;28;20495;-75
2022/10/11 04:27:47;;;;;;;4.23;3.90;;;11.20;99.90;;;;;;5064036;28;20507;-75
2022/10/11 04:30:16;;;;;;;8.63;4.63;;;11.10;99.90;;;;;;5056406;28;20456;-75
2022/10/11 04:32:44;;;;;;;4.37;3.97;;;11.00;99.90;;;;;;5061178;28;20510;-76
2022/10/11 04:35:11;;;;;;;5.43;4.93;;;11.00;99.90;;;;;;5060480;28;20958;-75
2022/10/11 04:37:38;;;;;;;5.50;5.00;;;11.00;99.90;;;;;;5062554;28;21009;-75
2022/10/11 04:40:07;;;;;;;4.37;4.00;;;10.90;99.90;;;;;;5061748;28;20517;-76
2022/10/11 04:42:34;;;;;;;6.17;5.10;;;10.90;99.90;;;;;;5061678;28;20517;-76
2022/10/11 04:45:01;;;;;;;8.90;4.67;;;10.70;99.90;;;;;;5061271;28;20491;-75
2022/10/11 04:47:29;;;;;;;8.47;5.50;;;10.70;99.90;;;;;;5055920;28;20533;-75
2022/10/11 04:49:56;;;;;;;7.40;5.70;;;10.70;99.90;;;;;;5060832;28;20951;-76
2022/10/11 04:52:23;;;;;;;5.03;4.63;;;10.70;99.90;;;;;;5063725;28;20514;-76
2022/10/11 04:54:51;;;;;;;6.13;5.50;;;10.80;99.90;;;;;;5061407;28;20464;-75
2022/10/11 04:57:18;;;;;;;6.80;6.10;;;10.70;99.90;;;;;;5059147;28;20511;-76
2022/10/11 04:59:45;;;;;;;7.57;6.97;;;10.80;99.90;;;;;;5064421;28;20463;-75
2022/10/11 05:02:11;;;;;;;6.40;5.30;;;10.90;99.90;;;;;;5059538;28;21296;-76
2022/10/11 05:04:40;;;;;;;6.00;5.40;;;11.10;99.90;;;;;;5061519;28;20459;-75
2022/10/11 05:07:07;;;;;;;6.47;5.97;;;11.10;99.90;;;;;;5059880;28;20464;-76
2022/10/11 05:09:34;;;;;;;6.93;5.97;;;11.10;99.90;;;;;;5060468;28;20554;-75
2022/10/11 05:12:01;;;;;;;14.40;6.93;;;11.10;99.90;;;;;;5057191;28;21009;-76
2022/10/11 05:14:27;;;;;;;5.57;5.07;;;11.10;99.90;;;;;;5061090;28;20537;-75
2022/10/11 05:16:54;;;;;;;5.40;4.97;;;11.10;99.90;;;;;;5059248;28;21688;-75
2022/10/11 05:19:21;;;;;;;9.10;6.50;;;11.00;99.90;;;;;;5058575;28;20522;-75
2022/10/11 05:21:50;;;;;;;6.37;5.77;;;11.00;99.90;;;;;;5060202;28;20625;-75
2022/10/11 05:24:17;;;;;;;8.80;6.37;;;11.00;99.90;;;;;;5061362;28;20534;-76
2022/10/11 05:26:44;;;;;;;9.70;5.93;;;11.00;99.90;;;;;;5058080;28;20461;-75
2022/10/11 05:29:11;;;;;;;9.53;5.10;;;10.90;99.90;;;;;;5055727;28;20853;-76
2022/10/11 05:31:38;;;;;;;5.80;4.83;;;10.90;99.90;;;;;;5061792;28;21133;-76
2022/10/11 05:34:05;;;;;;;6.77;5.33;;;10.80;99.90;;;;;;5060784;28;20864;-76
2022/10/11 05:36:31;;;;;;;7.20;4.83;;;10.90;99.90;;;;;;5059584;28;20562;-76
2022/10/11 05:39:00;;;;;;;5.53;4.87;;;10.90;99.90;;;;;;5058405;28;20865;-76
2022/10/11 05:41:28;;;;;;;5.57;5.13;;;11.10;99.90;;;;;;5055657;28;20789;-76
2022/10/11 05:43:54;;;;;;;6.60;6.00;;;11.10;99.90;;;;;;5058787;28;20465;-76
2022/10/11 05:46:21;;;;;;;7.07;5.53;;;11.20;99.90;;;;;;5059343;28;20470;-76
2022/10/11 05:48:48;;;;;;;8.40;6.00;;;11.40;99.90;;;;;;5059543;28;20926;-76
2022/10/11 05:51:15;;;;;;;6.13;5.53;;;11.70;99.90;;;;;;5058172;28;21157;-76
2022/10/11 05:53:42;;;;;;;8.43;5.90;;;11.70;99.90;;;;;;5062908;28;20472;-76
2022/10/11 05:56:20;;;;;;;8.80;7.17;;;11.80;99.90;;;;;;5059444;28;20965;-76
2022/10/11 05:58:47;;;;;;;8.93;6.30;;;12.00;99.90;;;;;;5054553;28;20484;-76
2022/10/11 06:01:18;;;;;;;6.10;5.40;;;12.00;99.90;;;;;;5048412;28;20494;-76
2022/10/11 06:03:45;;;;;;;4.97;4.67;;;12.10;99.90;;;;;;5055859;28;20558;-76
2022/10/11 06:06:12;;;;;;;9.90;6.67;;;12.20;99.90;;;;;;5059467;28;20544;-76
2022/10/11 06:08:39;;;;;;;8.23;6.30;;;12.20;99.90;;;;;;5063693;28;20446;-76
2022/10/11 06:11:11;;;;;;;6.40;5.77;;;12.30;99.90;;;;;;5058650;28;20461;-75
2022/10/11 06:13:40;;;;;;;7.23;5.93;;;12.20;99.90;;;;;;5059854;28;20561;-76
2022/10/11 06:16:07;;;;;;;6.47;5.63;;;12.30;99.90;;;;;;5059496;28;20560;-76
2022/10/11 06:18:34;;;;;;;7.00;5.23;;;12.30;99.90;;;;;;5061428;28;20487;-76
2022/10/11 06:21:01;;;;;;;9.77;8.10;;;12.50;99.90;;;;;;5061528;28;20463;-76
2022/10/11 06:23:28;;;;;;;7.00;6.30;;;12.60;99.90;;;;;;5063933;28;20914;-76
2022/10/11 06:25:58;;;;;;;8.23;6.47;;;12.80;99.90;;;;;;5056980;28;20531;-76
2022/10/11 06:28:27;;;;;;;8.90;6.77;;;13.00;99.90;;;;;;5062403;28;20484;-76
2022/10/11 06:30:56;;;;;;;6.83;6.13;;;13.10;99.90;;;;;;5058534;28;20467;-76
2022/10/11 06:33:23;;;;;;;6.20;5.50;;;13.40;99.90;;;;;;5053682;28;21124;-76
2022/10/11 06:35:56;;;;;;;7.47;5.77;;;13.60;99.90;;;;;;5062849;28;20529;-75
2022/10/11 06:38:23;;;;;;;6.77;6.07;;;13.80;99.90;;;;;;5061705;28;20509;-76
2022/10/11 06:40:50;;;;;;;12.90;5.73;;;13.90;99.90;;;;;;5063466;28;20503;-75
2022/10/11 06:43:17;;;;;;;10.30;6.90;;;14.00;99.90;;;;;;5061813;28;20457;-76
2022/10/11 06:45:44;;;;;;;10.10;5.13;;;14.00;99.90;;;;;;5058650;28;20468;-76
2022/10/11 06:48:12;;;;;;;6.90;4.27;;;14.20;99.90;;;;;;5061908;28;20536;-76
2022/10/11 06:50:39;;;;;;;4.37;3.60;;;14.20;99.90;;;;;;5058048;28;20530;-75
2022/10/11 06:53:07;;;;;;;4.80;4.30;;;14.50;99.90;;;;;;5061161;28;20971;-76
2022/10/11 06:55:34;;;;;;;7.00;3.63;;;14.70;99.90;;;;;;5058388;28;20463;-76
2022/10/11 06:58:01;;;;;;;5.00;3.70;;;15.00;99.90;;;;;;5057346;28;20516;-76
2022/10/11 07:00:28;;;;;;;6.10;3.80;;;15.10;99.90;;;;;;5058548;28;20460;-76
2022/10/11 07:02:55;;;;;;;6.10;3.93;;;15.30;99.90;;;;;;5065925;28;20509;-76
2022/10/11 07:05:24;;;;;;;7.70;4.53;;;15.30;99.90;;;;;;5060944;28;20462;-76
2022/10/11 07:07:51;;;;;;;5.43;4.30;;;15.40;99.90;;;;;;5061958;28;20529;-76
2022/10/11 07:10:18;;;;;;;3.03;2.83;;;15.60;99.90;;;;;;5061247;28;20523;-76
2022/10/11 07:12:45;;;;;;;3.10;2.80;;;15.70;99.90;;;;;;5060202;28;21197;-76
2022/10/11 07:15:12;;;;;;;8.63;2.67;;;15.90;99.90;;;;;;5062201;28;20489;-76
2022/10/11 07:17:39;;;;;;;3.47;2.73;;;15.90;99.90;;;;;;5060667;28;20579;-76
2022/10/11 07:20:08;;;;;;;4.97;3.60;;;15.90;99.90;;;;;;5063118;28;20862;-76
2022/10/11 07:22:36;;;;;;;4.83;2.87;;;16.00;99.90;;;;;;5062895;28;20466;-76
2022/10/11 07:25:04;;;;;;;4.50;4.07;;;16.10;99.90;;;;;;5059940;28;20503;-76
2022/10/11 07:27:31;;;;;;;6.37;3.37;;;16.10;99.90;;;;;;5062831;28;20544;-76
2022/10/11 07:29:57;;;;;;;5.83;3.00;;;16.00;99.90;;;;;;5059018;28;22191;-76
2022/10/11 07:32:24;;;;;;;4.40;3.23;;;15.70;99.90;;;;;;5063394;28;20452;-76
2022/10/11 07:34:51;;;;;;;4.63;3.27;;;15.70;99.90;;;;;;5064223;28;20465;-76
2022/10/11 07:37:18;;;;;;;13.17;3.10;;;15.40;99.90;;;;;;5060171;28;20901;-76
2022/10/11 07:39:49;;;;;;;6.67;3.47;;;15.30;99.90;;;;;;5065708;28;20474;-76
2022/10/11 07:42:16;;;;;;;13.40;4.17;;;15.30;99.90;;;;;;5061296;28;20470;-76
2022/10/11 07:44:43;;;;;;;3.10;2.80;;;15.50;99.90;;;;;;5063073;28;20471;-76
2022/10/11 07:47:10;;;;;;;8.30;3.20;;;15.70;99.90;;;;;;5062418;28;20950;-76
2022/10/11 07:49:36;;;;;;;3.70;2.90;;;16.00;99.90;;;;;;5069032;28;20485;-75
2022/10/11 07:52:03;;;;;;;5.20;3.13;;;16.10;99.90;;;;;;5064777;28;20511;-76
2022/10/11 07:54:31;;;;;;;3.63;2.97;;;16.10;99.90;;;;;;5062584;28;20485;-76
2022/10/11 07:57:00;;;;;;;6.90;2.50;;;15.90;99.90;;;;;;5060089;28;20469;-75
2022/10/11 07:59:27;;;;;;;2.50;1.83;;;15.80;99.90;;;;;;5066498;28;20488;-75
2022/10/11 08:01:54;;;;;;;7.10;2.97;;;15.70;99.90;;;;;;5066043;28;20476;-75
2022/10/11 08:04:21;;;;;;;3.77;2.63;;;15.60;99.90;;;;;;5057794;28;21000;-76
2022/10/11 08:06:48;;;;;;;8.23;4.07;;;15.60;99.90;;;;;;5064348;28;20464;-76
2022/10/11 08:09:15;;;;;;;4.67;2.37;;;15.60;99.90;;;;;;5057137;28;20519;-76
2022/10/11 08:11:42;;;;;;;3.97;2.50;;;15.70;99.90;;;;;;5061109;28;20470;-75
2022/10/11 08:14:10;;;;;;;2.47;2.00;;;15.70;99.90;;;;;;5064444;28;20980;-76
2022/10/11 08:16:38;;;;;;;4.33;2.60;;;15.90;99.90;;;;;;5045494;28;20477;-76
2022/10/11 08:19:05;;;;;;;9.53;2.23;;;16.00;99.90;;;;;;5043377;28;20526;-76
2022/10/11 08:21:32;;;;;;;4.77;2.33;;;16.00;99.90;;;;;;5041975;28;20467;-76
2022/10/11 08:24:01;;;;;;;8.17;4.00;;;16.00;99.90;;;;;;5046951;28;21002;-76
2022/10/11 08:26:28;;;;;;;3.20;2.73;;;16.10;99.90;;;;;;5043075;28;20495;-75
2022/10/11 08:28:55;;;;;;;5.00;2.13;;;16.10;99.90;;;;;;5043448;28;20509;-75
2022/10/11 08:31:24;;;;;;;4.83;2.37;;;16.10;99.90;;;;;;5041011;28;20477;-75
2022/10/11 08:33:51;;;;;;;5.30;2.90;;;16.20;99.90;;;;;;5037640;28;20551;-76
2022/10/11 08:36:18;;;;;;;2.40;1.90;;;16.30;99.90;;;;;;5043065;28;20543;-76
2022/10/11 08:38:45;;;;;;;4.73;1.77;;;16.30;99.90;;;;;;5047071;28;21088;-76
2022/10/11 08:41:31;;;;;;;6.97;2.40;;;16.40;99.90;;;;;;5041916;28;20502;-76
2022/10/11 08:44:28;;;;;;;4.23;2.60;;;16.30;99.90;;;;;;5045640;28;20600;-75
2022/10/11 08:47:02;;;;;;;2.00;1.57;;;16.30;99.90;;;;;;5041391;28;20492;-75
2022/10/11 08:49:33;;;;;;;2.63;1.20;;;16.10;99.90;;;;;;5046074;28;20472;-76
2022/10/11 08:52:03;;;;;;;3.23;1.70;;;16.00;99.90;;;;;;5058978;28;20958;-75
2022/10/11 08:54:41;;;;;;;2.90;1.40;;;15.90;99.90;;;;;;5063703;28;20945;-75
2022/10/11 08:57:13;;;;;;;1.83;1.73;;;15.70;99.90;;;;;;5062437;28;20455;-76
2022/10/11 08:59:47;;;;;;;2.60;2.00;;;15.70;99.90;;;;;;5064489;28;20983;-75
2022/10/11 09:02:27;;;;;;;4.70;2.80;;;15.50;99.90;;;;;;5060359;28;20550;-75
2022/10/11 09:04:55;;;;;;;6.17;2.30;;;15.40;99.90;;;;;;5062148;28;21029;-76
2022/10/11 09:07:33;;;;;;;3.20;2.50;;;15.30;99.90;;;;;;5060944;28;20461;-75
2022/10/11 09:10:22;;;;;;;4.50;3.73;;;15.20;99.90;;;;;;5060851;28;20491;-76
2022/10/11 09:13:00;;;;;;;6.50;3.23;;;15.30;99.90;;;;;;5062834;28;20498;-76
2022/10/11 09:15:34;;;;;;;3.80;2.63;;;15.30;99.90;;;;;;5063093;28;20848;-76
2022/10/11 09:18:21;;;;;;;10.43;3.70;;;15.40;99.90;;;;;;5061533;28;20535;-76
2022/10/11 09:20:56;;;;;;;4.77;4.47;;;15.80;99.90;;;;;;5059116;28;20447;-76
2022/10/11 09:23:44;;;;;;;4.67;4.27;;;15.90;99.90;;;;;;5058537;28;20539;-76
2022/10/11 09:26:19;;;;;;;5.57;4.50;;;16.40;99.90;;;;;;5060772;28;20446;-76
2022/10/11 09:28:56;;;;;;;4.53;4.13;;;16.70;99.90;;;;;;5054886;28;20482;-76
2022/10/11 09:31:24;;;;;;;5.90;5.50;;;17.10;99.90;;;;;;5061708;28;20846;-76
2022/10/11 09:33:52;;;;;;;7.10;6.00;;;17.20;99.90;;;;;;5056904;28;20537;-76
2022/10/11 09:36:25;;;;;;;5.27;4.70;;;17.20;99.90;;;;;;5058554;28;20807;-76
2022/10/11 09:38:59;;;;;;;6.40;4.70;;;17.00;99.90;;;;;;5057915;28;20611;-76
2022/10/11 09:41:34;;;;;;;7.87;5.17;;;17.20;99.90;;;;;;5059215;28;20485;-76
2022/10/11 09:44:02;;;;;;;15.07;6.30;;;17.00;99.90;;;;;;5065205;28;20527;-76
2022/10/11 09:46:34;;;;;;;5.63;5.00;;;16.90;99.90;;;;;;5061743;28;20621;-77
2022/10/11 09:49:05;;;;;;;7.80;5.80;;;16.80;99.90;;;;;;5063196;28;20450;-76
2022/10/11 09:51:33;;;;;;;10.77;5.97;;;16.80;99.90;;;;;;5063501;28;20520;-76
2022/10/11 09:54:03;;;;;;;6.23;5.63;;;16.90;99.90;;;;;;5053999;28;20466;-76
2022/10/11 09:56:32;;;;;;;11.07;6.50;;;16.90;99.90;;;;;;5060229;28;20443;-76
2022/10/11 09:59:19;;;;;;;5.83;5.30;;;16.90;99.90;;;;;;5060868;28;20523;-76
2022/10/11 10:01:46;;;;;;;6.67;5.60;;;16.90;99.90;;;;;;5058311;28;20471;-76
2022/10/11 10:04:17;;;;;;;11.13;7.10;;;16.70;99.90;;;;;;5056549;28;20463;-76
2022/10/11 10:06:43;;;;;;;8.83;7.63;;;16.50;99.90;;;;;;5065037;28;20450;-76
2022/10/11 10:09:27;;;;;;;8.47;6.60;;;16.40;99.90;;;;;;5055850;28;20498;-76
2022/10/11 10:11:55;;;;;;;7.37;6.63;;;16.30;99.90;;;;;;5056849;28;20476;-76
2022/10/11 10:14:25;;;;;;;10.83;6.87;;;16.20;99.90;;;;;;5060027;28;20539;-76
2022/10/11 10:17:05;;;;;;;8.07;7.23;;;16.10;99.90;;;;;;5061407;28;20471;-76
2022/10/11 10:19:40;;;;;;;9.97;8.27;;;16.10;99.90;;;;;;5057634;28;20544;-76
2022/10/11 10:22:17;;;;;;;8.40;7.60;;;16.00;99.90;;;;;;5060140;28;21195;-74
2022/10/11 10:24:44;;;;;;;8.60;7.20;;;16.00;99.90;;;;;;5057977;28;20515;-74
2022/10/11 10:27:21;;;;;;;8.00;7.20;;;15.90;99.90;;;;;;5061445;28;20490;-74
2022/10/11 10:30:04;;;;;;;8.30;7.50;;;15.90;99.90;;;;;;5062298;28;21046;-74
2022/10/11 10:32:34;;;;;;;11.67;7.43;;;15.80;99.90;;;;;;5060824;28;20540;-74
2022/10/11 10:35:09;;;;;;;8.83;7.93;;;15.80;99.90;;;;;;5062737;28;20493;-74
2022/10/11 10:37:40;;;;;;;9.30;7.20;;;15.70;99.90;;;;;;5065182;28;20502;-74
2022/10/11 10:40:10;;;;;;;9.70;7.70;;;15.70;99.90;;;;;;5061500;28;20525;-74
2022/10/11 10:42:37;;;;;;;9.70;7.40;;;15.70;99.90;;;;;;5058184;28;20505;-74
2022/10/11 10:45:08;;;;;;;8.53;7.10;;;15.70;99.90;;;;;;5059241;28;20458;-74
2022/10/11 10:48:03;;;;;;;11.03;8.73;;;15.90;99.90;;;;;;5053479;28;20511;-74
2022/10/11 10:50:47;;;;;;;10.47;9.50;;;16.10;99.90;;;;;;5061142;28;20552;-74
2022/10/11 10:53:24;;;;;;;8.37;7.57;;;16.10;99.90;;;;;;5052502;28;20442;-74
2022/10/11 10:55:55;;;;;;;8.80;7.40;;;16.20;99.90;;;;;;5062655;28;20460;-74
2022/10/11 10:58:38;;;;;;;8.53;7.73;;;16.30;99.90;;;;;;5061472;28;20522;-74
2022/10/11 11:01:14;;;;;;;10.90;8.17;;;16.40;99.90;;;;;;5064729;28;20498;-74
2022/10/11 11:03:46;;;;;;;8.20;7.40;;;16.40;99.90;;;;;;5059137;28;20492;-74
2022/10/11 11:06:22;;;;;;;8.03;7.23;;;16.40;99.90;;;;;;5061620;28;20462;-74
2022/10/11 11:09:03;;;;;;;13.83;8.13;;;16.40;99.90;;;;;;5060185;28;20478;-74
2022/10/11 11:11:42;;;;;;;9.07;7.93;;;16.60;99.90;;;;;;5052972;28;20494;-75
2022/10/11 11:14:21;;;;;;;8.53;6.97;;;16.70;99.90;;;;;;5060554;28;20539;-75
2022/10/11 11:16:55;;;;;;;7.80;7.00;;;16.80;99.90;;;;;;5053516;28;20463;-75
2022/10/11 11:19:33;;;;;;;10.13;7.73;;;16.80;99.90;;;;;;5057801;28;20514;-75
2022/10/11 11:22:08;;;;;;;7.43;5.40;;;17.10;99.90;;;;;;5058252;28;20462;-77
2022/10/11 11:24:46;;;;;;;6.63;6.03;;;17.10;99.90;;;;;;5058993;28;20515;-76
2022/10/11 11:27:20;;;;;;;7.40;6.50;;;17.10;99.90;;;;;;5058203;28;20567;-76
2022/10/11 11:29:55;;;;;;;6.13;5.70;;;17.30;99.90;;;;;;5056277;28;20489;-77
2022/10/11 11:32:31;;;;;;;9.60;6.43;;;17.60;99.90;;;;;;5051701;28;20855;-78
2022/10/11 11:35:02;;;;;;;5.70;5.20;;;17.60;99.90;;;;;;5047562;28;20456;-78
2022/10/11 11:37:34;;;;;;;5.10;4.60;;;17.80;99.90;;;;;;5051668;28;20865;-78
2022/10/11 11:40:06;;;;;;;5.43;4.93;;;18.20;99.90;;;;;;5054395;28;20508;-78
2022/10/11 11:42:39;;;;;;;4.73;4.23;;;18.10;99.90;;;;;;5061013;28;20826;-78
2022/10/11 11:45:17;;;;;;;5.27;4.87;;;18.10;99.90;;;;;;5053739;28;20495;-78
2022/10/11 11:47:50;;;;;;;6.40;5.27;;;18.10;99.90;;;;;;5059175;28;20463;-77
2022/10/11 11:50:21;;;;;;;8.23;5.03;;;17.90;99.90;;;;;;5063130;28;20490;-77
2022/10/11 11:52:54;;;;;;;7.67;5.30;;;18.00;99.90;;;;;;5057892;28;20479;-76
2022/10/11 11:55:29;;;;;;;6.70;6.10;;;18.20;99.90;;;;;;5064667;28;20894;-76
2022/10/11 11:58:08;;;;;;;6.87;6.13;;;18.30;99.90;;;;;;5056982;28;20466;-77
2022/10/11 12:00:46;;;;;;;7.43;5.87;;;18.20;99.90;;;;;;5059017;28;20514;-76
2022/10/11 12:03:19;;;;;;;7.63;6.93;;;18.20;99.90;;;;;;5068050;28;20455;-76
2022/10/11 12:06:25;;;;;;;7.90;6.60;;;18.20;99.90;;;;;;5056358;28;20480;-76
2022/10/11 12:09:05;;;;;;;10.03;7.30;;;18.10;99.90;;;;;;5063189;28;20455;-76
2022/10/11 12:11:48;;;;;;;8.67;6.00;;;18.20;99.90;;;;;;5056639;28;20874;-76
2022/10/11 12:14:23;;;;;;;11.53;7.47;;;18.20;99.90;;;;;;5055909;28;20459;-76
2022/10/11 12:17:19;;;;;;;6.20;5.80;;;18.00;99.90;;;;;;5058979;28;20466;-76
2022/10/11 12:20:16;;;;;;;5.47;4.97;;;18.10;99.90;;;;;;5054105;28;20596;-76
2022/10/11 12:22:57;;;;;;;6.73;6.10;;;18.10;99.90;;;;;;5027845;28;20495;-77
2022/10/11 12:25:43;;;;;;;14.10;6.97;;;18.20;99.90;;;;;;5058084;28;20470;-77
2022/10/11 12:28:48;;;;;;;6.60;6.00;;;18.20;99.90;;;;;;5060576;28;20498;-77
2022/10/11 12:31:24;;;;;;;5.03;4.53;;;17.90;99.90;;;;;;5062390;28;20473;-77
2022/10/11 12:34:02;;;;;;;11.00;7.60;;;17.90;99.90;;;;;;5059558;28;20499;-77
2022/10/11 12:36:37;;;;;;;8.00;5.57;;;18.00;99.90;;;;;;5060349;28;21010;-77
2022/10/11 12:39:42;;;;;;;7.33;6.10;;;17.90;99.90;;;;;;5064723;28;20940;-77
2022/10/11 12:42:25;;;;;;;6.97;6.37;;;17.90;99.90;;;;;;5022782;28;20502;-77
2022/10/11 12:45:32;;;;;;;5.70;5.20;;;17.40;99.90;;;;;;5059909;28;20533;-77
2022/10/11 12:48:20;;;;;;;7.50;6.80;;;17.60;99.90;;;;;;5063070;28;20559;-76
2022/10/11 12:51:02;;;;;;;6.83;6.27;;;17.70;99.90;;;;;;5054485;28;20780;-76
2022/10/11 12:53:59;;;;;;;8.83;7.97;;;17.80;99.90;;;;;;5068139;28;20456;-77
2022/10/11 12:56:43;;;;;;;9.10;8.20;;;17.70;99.90;;;;;;5056185;28;20541;-77
2022/10/11 12:59:18;;;;;;;8.07;7.37;;;17.80;99.90;;;;;;5057552;28;20511;-77
2022/10/11 13:01:51;;;;;;;9.43;7.70;;;17.80;99.90;;;;;;5065628;28;20448;-76
2022/10/11 13:04:21;;;;;;;8.43;7.63;;;17.80;99.90;;;;;;5058450;28;20494;-76
2022/10/11 13:06:50;;;;;;;7.50;6.83;;;17.80;99.90;;;;;;5062052;28;20459;-76
2022/10/11 13:09:25;;;;;;;10.27;7.37;;;18.00;99.90;;;;;;5056393;28;20460;-77